Time;durP1;ratioP1;P1;durP2;ratioP2;P2;SDS_P1;SDS_P2;PMS_P1;PMS_P2;Temp;Humidity;BMP_temperature;BMP_pressure;BME280_temperature;BME280_humidity;BME280_pressure;Samples;Min_cycle;Max_cycle;Signal;HPM_P1;HPM_P2
2023/12/25 00:02:00;;;;;;;3.00;2.30;;;12.20;99.90;;;;;;5022822;28;20583;-76
2023/12/25 00:04:28;;;;;;;2.97;1.90;;;12.20;99.90;;;;;;5024678;28;20195;-76
2023/12/25 00:06:56;;;;;;;2.00;1.80;;;12.20;99.90;;;;;;5026070;28;20563;-76
2023/12/25 00:09:41;;;;;;;1.90;1.40;;;12.20;99.90;;;;;;5022664;28;20208;-76
2023/12/25 00:12:09;;;;;;;1.63;1.53;;;12.20;99.90;;;;;;5025417;28;20221;-76
2023/12/25 00:14:36;;;;;;;3.07;1.60;;;12.20;99.90;;;;;;5019345;28;20214;-76
2023/12/25 00:17:04;;;;;;;2.33;1.63;;;12.20;99.90;;;;;;5025688;28;20194;-76
2023/12/25 00:19:33;;;;;;;2.27;1.40;;;12.20;99.90;;;;;;5041330;28;20552;-76
2023/12/25 00:21:59;;;;;;;2.70;1.67;;;12.20;99.90;;;;;;5069660;22;20217;-76
2023/12/25 00:24:27;;;;;;;2.03;1.83;;;12.20;99.90;;;;;;5053950;28;20198;-77
2023/12/25 00:26:54;;;;;;;2.73;1.90;;;12.30;99.90;;;;;;5054258;28;20205;-77
2023/12/25 00:29:21;;;;;;;2.53;1.83;;;12.30;99.90;;;;;;5053808;28;20563;-77
2023/12/25 00:31:49;;;;;;;2.10;1.70;;;12.30;99.90;;;;;;5046268;28;20607;-77
2023/12/25 00:34:16;;;;;;;2.53;2.20;;;12.30;99.90;;;;;;5026301;28;20215;-77
2023/12/25 00:36:45;;;;;;;2.47;2.00;;;12.30;99.90;;;;;;5026515;28;20565;-77
2023/12/25 00:39:13;;;;;;;2.50;2.33;;;12.30;99.90;;;;;;5017861;28;20195;-77
2023/12/25 00:41:40;;;;;;;3.80;2.70;;;12.30;99.90;;;;;;5024936;28;20227;-77
2023/12/25 00:44:08;;;;;;;2.67;2.10;;;12.30;99.90;;;;;;5027913;28;20202;-77
2023/12/25 00:46:36;;;;;;;3.67;2.97;;;12.40;99.90;;;;;;5031969;28;20209;-77
2023/12/25 00:49:03;;;;;;;4.20;2.80;;;12.40;99.90;;;;;;5024367;28;20209;-77
2023/12/25 00:51:31;;;;;;;4.13;2.80;;;12.40;99.90;;;;;;5022569;28;20206;-77
2023/12/25 00:54:00;;;;;;;3.13;2.90;;;12.40;99.90;;;;;;5024029;28;20211;-77
2023/12/25 00:56:27;;;;;;;3.57;2.70;;;12.40;99.90;;;;;;5033210;28;20199;-77
2023/12/25 00:59:22;;;;;;;3.83;3.30;;;12.40;99.90;;;;;;5033433;28;20202;-77
2023/12/25 01:01:49;;;;;;;3.20;2.90;;;12.40;99.90;;;;;;5046265;28;20205;-77
2023/12/25 01:04:17;;;;;;;4.20;3.43;;;12.40;99.90;;;;;;5024288;28;20205;-77
2023/12/25 01:06:44;;;;;;;4.87;4.10;;;12.40;99.90;;;;;;5032144;28;20199;-77
2023/12/25 01:09:14;;;;;;;4.83;3.57;;;12.40;99.90;;;;;;5024603;28;20191;-77
2023/12/25 01:11:42;;;;;;;4.13;3.60;;;12.50;99.90;;;;;;5031546;28;20211;-77
2023/12/25 01:14:10;;;;;;;3.93;3.60;;;12.50;99.90;;;;;;5029621;28;20206;-77
2023/12/25 01:16:38;;;;;;;5.60;4.10;;;12.50;99.90;;;;;;5028967;28;20209;-77
2023/12/25 01:19:06;;;;;;;4.10;3.80;;;12.50;99.90;;;;;;5030823;28;20555;-77
2023/12/25 01:21:34;;;;;;;3.57;3.27;;;12.50;99.90;;;;;;5030147;28;20210;-77
2023/12/25 01:24:01;;;;;;;3.40;3.10;;;12.50;99.90;;;;;;5028871;28;20195;-77
2023/12/25 01:26:31;;;;;;;3.93;3.53;;;12.50;99.90;;;;;;5035999;28;20195;-77
2023/12/25 01:28:58;;;;;;;4.10;3.80;;;12.50;99.90;;;;;;5019439;28;20203;-77
2023/12/25 01:31:26;;;;;;;4.30;3.67;;;12.50;99.90;;;;;;5024362;28;20210;-76
2023/12/25 01:33:53;;;;;;;5.50;4.50;;;12.50;99.90;;;;;;5034254;28;20198;-77
2023/12/25 01:36:20;;;;;;;5.13;4.73;;;12.50;99.90;;;;;;5034931;28;20198;-77
2023/12/25 01:38:48;;;;;;;6.40;5.10;;;12.50;99.90;;;;;;5017750;28;20199;-77
2023/12/25 01:41:15;;;;;;;4.80;4.37;;;12.50;99.90;;;;;;5025175;28;20198;-77
2023/12/25 01:43:44;;;;;;;5.53;4.33;;;12.50;99.90;;;;;;5033791;28;20202;-77
2023/12/25 01:46:14;;;;;;;5.03;4.53;;;12.50;99.90;;;;;;5065025;28;20194;-77
2023/12/25 01:48:41;;;;;;;4.57;4.17;;;12.60;99.90;;;;;;5029172;28;20201;-77
2023/12/25 01:51:09;;;;;;;6.60;4.13;;;12.60;99.90;;;;;;5025601;28;20207;-77
2023/12/25 01:53:36;;;;;;;6.00;3.90;;;12.50;99.90;;;;;;5033151;28;20218;-77
2023/12/25 01:56:04;;;;;;;3.77;3.47;;;12.60;99.90;;;;;;5031832;28;20221;-77
2023/12/25 01:58:32;;;;;;;3.93;3.63;;;12.60;99.90;;;;;;5028491;28;20203;-77
2023/12/25 02:01:00;;;;;;;3.83;3.37;;;12.60;99.90;;;;;;5025349;28;20651;-77
2023/12/25 02:03:29;;;;;;;3.90;3.60;;;12.70;99.90;;;;;;5025815;28;20214;-77
2023/12/25 02:05:57;;;;;;;4.23;3.83;;;12.60;99.90;;;;;;5035739;28;20195;-77
2023/12/25 02:08:26;;;;;;;4.87;3.63;;;12.60;99.90;;;;;;5034245;28;20672;-77
2023/12/25 02:10:53;;;;;;;3.60;3.30;;;12.60;99.90;;;;;;5032679;28;20191;-77
2023/12/25 02:13:22;;;;;;;3.40;3.10;;;12.60;99.90;;;;;;5035968;28;20225;-77
2023/12/25 02:15:50;;;;;;;4.80;2.90;;;12.60;99.90;;;;;;5028567;28;20202;-77
2023/12/25 02:18:18;;;;;;;3.10;2.90;;;12.50;99.90;;;;;;5036908;28;20412;-77
2023/12/25 02:20:46;;;;;;;3.07;2.80;;;12.50;99.90;;;;;;5050002;28;20202;-77
2023/12/25 02:23:16;;;;;;;2.87;2.67;;;12.50;99.90;;;;;;5049249;28;20223;-77
2023/12/25 02:25:55;;;;;;;4.53;2.70;;;12.50;99.90;;;;;;5069193;28;20194;-76
2023/12/25 02:28:23;;;;;;;4.03;2.60;;;12.50;99.90;;;;;;5026682;28;20190;-77
2023/12/25 02:30:52;;;;;;;3.00;2.50;;;12.40;99.90;;;;;;5036119;28;20190;-77
2023/12/25 02:33:19;;;;;;;4.03;2.65;;;12.50;99.90;;;;;;5053567;28;20214;-77
2023/12/25 02:35:47;;;;;;;2.57;2.20;;;12.40;99.90;;;;;;5025367;28;20215;-77
2023/12/25 02:38:14;;;;;;;2.23;2.03;;;12.50;99.90;;;;;;5019233;28;20195;-77
2023/12/25 02:40:42;;;;;;;2.33;2.13;;;12.50;99.90;;;;;;5036051;28;20198;-77
2023/12/25 02:43:11;;;;;;;3.00;1.90;;;12.40;99.90;;;;;;5048869;28;20217;-77
2023/12/25 02:45:39;;;;;;;2.37;2.00;;;12.40;99.90;;;;;;5034918;28;20182;-77
2023/12/25 02:48:07;;;;;;;2.13;1.97;;;12.40;99.90;;;;;;5035203;28;20194;-77
2023/12/25 02:50:35;;;;;;;2.50;2.30;;;12.40;99.90;;;;;;5035409;28;20202;-76
2023/12/25 02:53:03;;;;;;;3.83;2.63;;;12.40;99.90;;;;;;5057657;28;20210;-77
2023/12/25 02:55:32;;;;;;;2.87;2.60;;;12.40;99.90;;;;;;5053649;28;20202;-77
2023/12/25 02:58:00;;;;;;;2.67;2.47;;;12.40;99.90;;;;;;5035449;28;20682;-77
2023/12/25 03:00:29;;;;;;;3.30;3.00;;;12.40;99.90;;;;;;5035026;28;20202;-77
2023/12/25 03:02:56;;;;;;;2.90;2.60;;;12.50;99.90;;;;;;5034650;28;20221;-76
2023/12/25 03:05:24;;;;;;;2.90;2.60;;;12.50;99.90;;;;;;5034953;28;20198;-77
2023/12/25 03:07:51;;;;;;;3.40;3.00;;;12.40;99.90;;;;;;5035553;28;20198;-76
2023/12/25 03:11:05;;;;;;;3.23;3.00;;;12.40;99.90;;;;;;5035371;28;20210;-76
2023/12/25 03:13:32;;;;;;;3.63;3.30;;;12.50;99.90;;;;;;5034622;28;20214;-76
2023/12/25 03:16:05;;;;;;;2.77;2.57;;;12.50;99.90;;;;;;5028174;28;20223;-75
2023/12/25 03:18:32;;;;;;;3.07;2.87;;;12.50;99.90;;;;;;5015741;28;20203;-78
2023/12/25 03:21:00;;;;;;;4.60;3.00;;;12.50;99.90;;;;;;5046344;28;20203;-78
2023/12/25 03:23:27;;;;;;;5.60;3.33;;;12.50;99.90;;;;;;5033267;28;20229;-78
2023/12/25 03:25:56;;;;;;;3.27;2.97;;;12.50;99.90;;;;;;5035170;28;20194;-78
2023/12/25 03:28:26;;;;;;;3.70;3.30;;;12.50;99.90;;;;;;5052424;28;20213;-78
2023/12/25 03:30:54;;;;;;;3.13;2.83;;;12.40;99.90;;;;;;5034057;28;20228;-78
2023/12/25 03:33:23;;;;;;;3.53;3.10;;;12.50;99.90;;;;;;5015032;28;20688;-78
2023/12/25 03:35:51;;;;;;;2.87;2.67;;;12.50;99.90;;;;;;5020729;28;20206;-78
2023/12/25 03:38:19;;;;;;;3.10;2.80;;;12.40;99.90;;;;;;5034835;28;20213;-78
2023/12/25 03:40:46;;;;;;;4.03;3.20;;;12.40;99.90;;;;;;5034703;28;20201;-78
2023/12/25 03:43:13;;;;;;;3.90;3.60;;;12.50;99.90;;;;;;5034855;28;20664;-77
2023/12/25 03:45:41;;;;;;;4.13;3.40;;;12.40;99.90;;;;;;5034417;28;20205;-78
2023/12/25 03:48:09;;;;;;;3.80;2.83;;;12.50;99.90;;;;;;5026085;28;20203;-77
2023/12/25 03:50:38;;;;;;;3.60;3.33;;;12.50;99.90;;;;;;5016186;28;20199;-78
2023/12/25 03:53:05;;;;;;;3.17;2.80;;;12.50;99.90;;;;;;5034027;28;20222;-78
2023/12/25 03:55:32;;;;;;;3.27;2.97;;;12.40;99.90;;;;;;5035114;28;20226;-77
2023/12/25 03:58:01;;;;;;;2.53;2.37;;;12.50;99.90;;;;;;5034427;28;20194;-77
2023/12/25 04:00:27;;;;;;;3.00;2.40;;;12.50;99.90;;;;;;5033837;28;20209;-78
2023/12/25 04:02:54;;;;;;;1.70;1.60;;;12.50;99.90;;;;;;5034118;28;20218;-77
2023/12/25 04:05:22;;;;;;;2.70;2.10;;;12.50;99.90;;;;;;5031370;28;20190;-78
2023/12/25 04:07:53;;;;;;;1.60;1.50;;;12.50;99.90;;;;;;5033432;28;20659;-78
2023/12/25 04:10:20;;;;;;;2.10;1.90;;;12.50;99.90;;;;;;5032442;28;20284;-78
2023/12/25 04:12:47;;;;;;;2.10;1.90;;;12.50;99.90;;;;;;5048319;28;20225;-78
2023/12/25 04:15:15;;;;;;;1.63;1.30;;;12.50;99.90;;;;;;5034399;28;20555;-78
2023/12/25 04:17:43;;;;;;;1.60;1.50;;;12.50;99.90;;;;;;5033787;28;20198;-78
2023/12/25 04:20:11;;;;;;;2.17;1.43;;;12.50;99.90;;;;;;5033410;28;20206;-78
2023/12/25 04:22:39;;;;;;;2.27;1.50;;;12.50;99.90;;;;;;5026331;28;20233;-78
2023/12/25 04:25:08;;;;;;;2.90;1.52;;;12.50;99.90;;;;;;5034574;28;20569;-78
2023/12/25 04:27:35;;;;;;;1.65;1.45;;;12.50;99.90;;;;;;5034213;28;20194;-77
2023/12/25 04:30:03;;;;;;;1.55;1.40;;;12.50;99.90;;;;;;5050829;28;20213;-78
2023/12/25 04:32:31;;;;;;;2.53;1.90;;;12.50;99.90;;;;;;5050919;28;20214;-78
2023/12/25 04:34:59;;;;;;;2.55;1.40;;;12.50;99.90;;;;;;5051112;28;20195;-78
2023/12/25 04:37:26;;;;;;;1.73;1.50;;;12.50;99.90;;;;;;5048509;28;20709;-78
2023/12/25 04:39:54;;;;;;;1.70;1.40;;;12.50;99.90;;;;;;5036511;28;20194;-77
2023/12/25 04:42:23;;;;;;;1.90;1.70;;;12.50;99.90;;;;;;5034915;28;20706;-78
2023/12/25 04:44:50;;;;;;;1.77;1.30;;;12.50;99.90;;;;;;5019003;28;20203;-78
2023/12/25 04:47:18;;;;;;;2.00;1.67;;;12.50;99.90;;;;;;5018700;28;20198;-78
2023/12/25 04:49:45;;;;;;;1.83;1.10;;;12.50;99.90;;;;;;5037316;28;20202;-78
2023/12/25 04:52:40;;;;;;;2.00;1.37;;;12.50;99.90;;;;;;5037431;28;20225;-77
2023/12/25 04:55:08;;;;;;;2.53;1.60;;;12.40;99.90;;;;;;5038202;28;20567;-78
2023/12/25 04:57:37;;;;;;;3.03;1.40;;;12.40;99.90;;;;;;5037024;28;20206;-78
2023/12/25 05:00:05;;;;;;;1.60;1.50;;;12.40;99.90;;;;;;5064610;28;20203;-78
2023/12/25 05:02:32;;;;;;;1.97;1.87;;;12.40;99.90;;;;;;5028522;28;20241;-78
2023/12/25 05:05:00;;;;;;;2.17;1.90;;;12.50;99.90;;;;;;5022964;28;20201;-78
2023/12/25 05:07:27;;;;;;;2.47;2.20;;;12.50;99.90;;;;;;5037015;28;20190;-78
2023/12/25 05:09:55;;;;;;;2.93;2.63;;;12.50;99.90;;;;;;5025791;28;20210;-78
2023/12/25 05:12:22;;;;;;;2.60;2.40;;;12.50;99.90;;;;;;5035705;28;20217;-78
2023/12/25 05:14:51;;;;;;;2.90;2.70;;;12.50;99.90;;;;;;5026375;28;20195;-78
2023/12/25 05:17:19;;;;;;;2.90;2.63;;;12.50;99.90;;;;;;5035533;28;20215;-78
2023/12/25 05:19:46;;;;;;;2.83;2.63;;;12.50;99.90;;;;;;5025958;28;20199;-78
2023/12/25 05:22:14;;;;;;;3.07;2.87;;;12.50;99.90;;;;;;5029529;28;20232;-78
2023/12/25 05:24:41;;;;;;;3.67;3.37;;;12.50;99.90;;;;;;5032139;28;20210;-77
2023/12/25 05:27:09;;;;;;;4.27;3.87;;;12.50;99.90;;;;;;5032451;28;20191;-78
2023/12/25 05:29:37;;;;;;;3.90;3.50;;;12.50;99.90;;;;;;5028309;28;20191;-78
2023/12/25 05:32:07;;;;;;;3.60;3.30;;;12.50;99.90;;;;;;5025581;28;20669;-78
2023/12/25 05:34:34;;;;;;;2.27;2.10;;;12.50;99.90;;;;;;5062446;28;20190;-78
2023/12/25 05:37:01;;;;;;;2.87;2.67;;;12.50;99.90;;;;;;5032515;28;20298;-78
2023/12/25 05:39:29;;;;;;;3.17;2.83;;;12.50;99.90;;;;;;5032022;28;20648;-78
2023/12/25 05:41:56;;;;;;;3.27;2.90;;;12.40;99.90;;;;;;5054172;28;20231;-78
2023/12/25 05:44:23;;;;;;;3.00;2.80;;;12.40;99.90;;;;;;5026861;28;20194;-78
2023/12/25 05:46:51;;;;;;;2.80;2.50;;;12.40;99.90;;;;;;5032505;28;20190;-78
2023/12/25 05:49:20;;;;;;;2.40;2.20;;;12.40;99.90;;;;;;5047979;28;20183;-78
2023/12/25 05:51:47;;;;;;;3.27;3.07;;;12.40;99.90;;;;;;5048427;28;20225;-78
2023/12/25 05:54:15;;;;;;;3.77;3.47;;;12.40;99.90;;;;;;5024585;28;20213;-78
2023/12/25 05:56:42;;;;;;;3.70;3.33;;;12.40;99.90;;;;;;5027987;28;20213;-78
2023/12/25 05:59:10;;;;;;;3.80;3.50;;;12.40;99.90;;;;;;5030575;28;20191;-78
2023/12/25 06:01:37;;;;;;;2.70;2.50;;;12.30;99.90;;;;;;5049576;28;20206;-78
2023/12/25 06:04:05;;;;;;;2.70;2.50;;;12.30;99.90;;;;;;5029550;28;20555;-78
2023/12/25 06:06:34;;;;;;;3.23;2.20;;;12.30;99.90;;;;;;5026634;28;20206;-78
2023/12/25 06:09:01;;;;;;;2.13;1.83;;;12.30;99.90;;;;;;5045974;28;20190;-78
2023/12/25 06:11:29;;;;;;;3.03;1.50;;;12.30;99.90;;;;;;5025204;28;20210;-78
2023/12/25 06:13:56;;;;;;;1.50;1.40;;;12.30;99.90;;;;;;5052790;28;20202;-77
2023/12/25 06:16:24;;;;;;;1.33;1.23;;;12.30;99.90;;;;;;5054426;28;20712;-78
2023/12/25 06:18:52;;;;;;;1.07;0.97;;;12.30;99.90;;;;;;5025487;28;20199;-78
2023/12/25 06:21:19;;;;;;;1.83;1.37;;;12.30;99.90;;;;;;5031384;28;20204;-78
2023/12/25 06:24:08;;;;;;;1.30;1.20;;;12.30;99.90;;;;;;5032194;23;20224;-77
2023/12/25 06:26:35;;;;;;;1.07;1.00;;;12.20;99.90;;;;;;5003299;28;20195;-77
2023/12/25 06:29:03;;;;;;;1.77;1.23;;;12.20;99.90;;;;;;4993727;28;20204;-77
2023/12/25 06:31:30;;;;;;;1.93;1.30;;;12.30;99.90;;;;;;4993457;28;20212;-77
2023/12/25 06:33:58;;;;;;;1.13;1.07;;;12.20;99.90;;;;;;4993121;28;20224;-77
2023/12/25 06:36:25;;;;;;;1.83;1.37;;;12.20;99.90;;;;;;5009962;28;20211;-77
2023/12/25 06:38:53;;;;;;;2.03;1.40;;;12.30;99.90;;;;;;5012465;28;20274;-76
2023/12/25 06:41:22;;;;;;;1.33;1.20;;;12.30;99.90;;;;;;5001323;28;20212;-77
2023/12/25 06:43:49;;;;;;;1.80;1.70;;;12.30;99.90;;;;;;4992860;28;20253;-77
2023/12/25 06:46:16;;;;;;;1.47;1.37;;;12.30;99.90;;;;;;4987605;28;20219;-77
2023/12/25 06:48:45;;;;;;;1.10;1.00;;;12.20;99.90;;;;;;4977153;28;20201;-77
2023/12/25 06:51:12;;;;;;;1.27;1.10;;;12.20;99.90;;;;;;4982147;28;20216;-77
2023/12/25 06:53:40;;;;;;;1.20;1.10;;;12.20;99.90;;;;;;5004583;28;20228;-77
2023/12/25 06:56:10;;;;;;;2.53;1.27;;;12.20;99.90;;;;;;4992725;28;20200;-77
2023/12/25 06:59:10;;;;;;;1.80;1.70;;;12.20;99.90;;;;;;4993861;28;20208;-77
2023/12/25 07:01:38;;;;;;;2.83;1.63;;;12.20;99.90;;;;;;4990011;28;20188;-76
2023/12/25 07:04:05;;;;;;;1.80;1.50;;;12.20;99.90;;;;;;5002005;28;20228;-77
2023/12/25 07:06:33;;;;;;;1.57;1.47;;;12.20;99.90;;;;;;5000289;28;20199;-77
2023/12/25 07:09:00;;;;;;;1.87;1.50;;;12.20;99.90;;;;;;4993623;28;20215;-77
2023/12/25 07:11:28;;;;;;;2.70;2.50;;;12.20;99.90;;;;;;4993031;28;20680;-77
2023/12/25 07:13:59;;;;;;;2.67;2.13;;;12.20;99.90;;;;;;4993410;28;20680;-77
2023/12/25 07:16:29;;;;;;;4.00;1.80;;;12.30;99.90;;;;;;4984898;28;20208;-77
2023/12/25 07:18:56;;;;;;;2.47;2.27;;;12.30;99.90;;;;;;4999529;28;20181;-77
2023/12/25 07:21:23;;;;;;;2.07;1.90;;;12.30;99.90;;;;;;4993040;28;20203;-76
2023/12/25 07:23:52;;;;;;;2.23;2.03;;;12.50;99.90;;;;;;4992451;28;20235;-76
2023/12/25 07:26:20;;;;;;;2.30;2.13;;;13.00;99.90;;;;;;4993194;28;20216;-76
2023/12/25 07:29:02;;;;;;;;;;;;;;;;;;;;;
2023/12/25 07:31:42;;;;;;;2.10;1.90;;;12.70;99.90;;;;;;5003123;28;20219;-77
2023/12/25 07:34:32;;;;;;;1.70;1.60;;;12.50;99.90;;;;;;4992113;28;20716;-76
2023/12/25 07:37:00;;;;;;;1.70;1.60;;;12.50;99.90;;;;;;4984905;28;20212;-76
2023/12/25 07:39:27;;;;;;;1.83;1.30;;;12.40;99.90;;;;;;5002721;28;20204;-76
2023/12/25 07:41:55;;;;;;;1.37;1.27;;;12.40;99.90;;;;;;5017840;28;20211;-76
2023/12/25 07:44:27;;;;;;;2.03;1.30;;;12.40;99.90;;;;;;5000908;28;20215;-76
2023/12/25 07:46:56;;;;;;;1.40;1.30;;;12.40;99.90;;;;;;4999703;28;20558;-77
2023/12/25 07:49:24;;;;;;;1.53;1.43;;;12.40;99.90;;;;;;4990764;28;20201;-77
2023/12/25 07:52:01;;;;;;;3.22;1.50;;;12.50;99.90;;;;;;4998077;28;20207;-76
2023/12/25 07:54:34;;;;;;;2.10;1.90;;;12.40;99.90;;;;;;4992132;28;20227;-78
2023/12/25 07:57:05;;;;;;;1.80;1.70;;;12.40;99.90;;;;;;4999963;28;20207;-77
2023/12/25 08:00:07;;;;;;;1.90;1.70;;;12.50;99.90;;;;;;5000365;28;20204;-77
2023/12/25 08:03:11;;;;;;;1.60;1.48;;;12.50;99.90;;;;;;4997208;28;20224;-78
2023/12/25 08:05:40;;;;;;;1.40;1.30;;;12.50;99.90;;;;;;5000431;28;20203;-76
2023/12/25 08:08:09;;;;;;;1.33;1.23;;;12.40;99.90;;;;;;4998543;28;20212;-78
2023/12/25 08:10:58;;;;;;;1.40;1.10;;;12.40;99.90;;;;;;4996824;28;20193;-76
2023/12/25 08:13:26;;;;;;;1.63;0.97;;;12.30;99.90;;;;;;4997365;28;20216;-76
2023/12/25 08:15:53;;;;;;;0.90;0.90;;;12.30;99.90;;;;;;4999336;28;20206;-77
2023/12/25 08:19:05;;;;;;;1.10;0.90;;;12.30;99.90;;;;;;4994657;28;20224;-77
2023/12/25 08:21:34;;;;;;;3.23;1.13;;;12.30;99.90;;;;;;4997249;28;20208;-76
2023/12/25 08:24:02;;;;;;;1.10;1.00;;;12.30;99.90;;;;;;4991048;28;20231;-77
2023/12/25 08:26:29;;;;;;;1.20;0.70;;;12.30;99.90;;;;;;5006242;28;20195;-76
2023/12/25 08:28:57;;;;;;;1.03;0.90;;;12.30;99.90;;;;;;4992125;28;20674;-76
2023/12/25 08:31:24;;;;;;;1.20;1.10;;;12.20;99.90;;;;;;5002996;28;20203;-76
2023/12/25 08:33:52;;;;;;;1.07;0.97;;;12.30;99.90;;;;;;5000581;28;20216;-77
2023/12/25 08:36:22;;;;;;;1.40;1.30;;;12.20;99.90;;;;;;4990660;28;20689;-77
2023/12/25 08:39:00;;;;;;;2.20;1.20;;;12.20;99.90;;;;;;4990661;28;20217;-76
2023/12/25 08:41:27;;;;;;;2.80;1.10;;;12.20;99.90;;;;;;5008381;28;20196;-78
2023/12/25 08:43:55;;;;;;;1.77;1.00;;;12.20;99.90;;;;;;4987960;28;20717;-76
2023/12/25 08:46:23;;;;;;;0.97;0.70;;;12.20;99.90;;;;;;4997806;28;20191;-77
2023/12/25 08:48:50;;;;;;;1.63;1.17;;;12.20;99.90;;;;;;4993543;28;20188;-77
2023/12/25 08:51:22;;;;;;;1.07;0.80;;;12.20;99.90;;;;;;4993083;28;20204;-77
2023/12/25 08:53:55;;;;;;;1.13;0.80;;;12.20;99.90;;;;;;4998815;28;20588;-76
2023/12/25 08:56:32;;;;;;;0.40;0.40;;;12.20;99.90;;;;;;5013573;28;20192;-76
2023/12/25 08:59:10;;;;;;;0.30;0.30;;;12.10;99.90;;;;;;5009561;28;20220;-77
2023/12/25 09:01:38;;;;;;;1.40;0.67;;;12.00;99.90;;;;;;5000776;28;20201;-76
2023/12/25 09:04:35;;;;;;;0.53;0.50;;;12.00;99.90;;;;;;4976171;28;20224;-76
2023/12/25 09:07:08;;;;;;;0.43;0.40;;;11.90;99.90;;;;;;5018255;28;20207;-76
2023/12/25 09:09:36;;;;;;;0.87;0.40;;;11.90;99.90;;;;;;4987909;28;20192;-76
2023/12/25 09:12:05;;;;;;;0.50;0.40;;;11.90;99.90;;;;;;4992809;28;20187;-77
2023/12/25 09:14:34;;;;;;;1.17;0.50;;;11.90;99.90;;;;;;4999455;28;20212;-77
2023/12/25 09:17:02;;;;;;;1.10;0.63;;;11.90;99.90;;;;;;4997705;28;20533;-77
2023/12/25 09:20:08;;;;;;;0.70;0.60;;;11.80;99.90;;;;;;5004883;28;20216;-77
2023/12/25 09:22:36;;;;;;;1.77;0.67;;;11.90;99.90;;;;;;4990412;28;20220;-76
2023/12/25 09:25:04;;;;;;;2.80;1.10;;;11.80;99.90;;;;;;5001494;28;20192;-76
2023/12/25 09:27:32;;;;;;;0.93;0.70;;;11.70;99.90;;;;;;5006065;28;20196;-77
2023/12/25 09:30:00;;;;;;;2.20;0.63;;;11.70;99.90;;;;;;5000190;28;20208;-76
2023/12/25 09:32:28;;;;;;;0.93;0.80;;;11.70;99.90;;;;;;5002829;28;20577;-76
2023/12/25 09:38:44;;;;;;;2.30;0.90;;;11.70;99.90;;;;;;5012758;28;20192;-76
2023/12/25 09:41:12;;;;;;;1.30;0.97;;;11.70;99.90;;;;;;5002385;28;20197;-77
2023/12/25 09:43:44;;;;;;;2.53;1.10;;;11.60;99.90;;;;;;4994485;28;20693;-77
2023/12/25 09:46:15;;;;;;;2.43;1.00;;;11.70;99.90;;;;;;4994145;28;20204;-77
2023/12/25 09:48:56;;;;;;;2.33;1.20;;;11.60;99.90;;;;;;4994308;28;20200;-76
2023/12/25 09:51:24;;;;;;;1.47;1.30;;;11.70;99.90;;;;;;4991008;28;20197;-77
2023/12/25 09:58:05;;;;;;;1.20;1.10;;;11.50;99.90;;;;;;5010124;28;20534;-77
2023/12/25 10:00:36;;;;;;;0.90;0.73;;;11.60;99.90;;;;;;4993422;28;20204;-76
2023/12/25 10:03:05;;;;;;;2.07;0.90;;;11.60;99.90;;;;;;5014028;28;20228;-76
2023/12/25 10:05:32;;;;;;;0.80;0.70;;;11.60;99.90;;;;;;4994697;28;20650;-76
2023/12/25 10:08:00;;;;;;;1.57;0.60;;;11.60;99.90;;;;;;4979051;28;20212;-76
2023/12/25 10:10:45;;;;;;;0.90;0.70;;;11.50;99.90;;;;;;4998876;28;20215;-76
2023/12/25 10:13:36;;;;;;;2.60;0.90;;;11.50;99.90;;;;;;4985647;28;20220;-76
2023/12/25 10:16:06;;;;;;;2.10;1.30;;;11.50;99.90;;;;;;4993460;28;20208;-77
2023/12/25 10:18:34;;;;;;;1.67;1.20;;;11.60;99.90;;;;;;4994004;28;20223;-77
2023/12/25 10:21:02;;;;;;;1.60;1.10;;;11.60;99.90;;;;;;4996021;28;20212;-76
2023/12/25 10:23:30;;;;;;;1.77;1.10;;;11.70;99.90;;;;;;4994837;28;20240;-77
2023/12/25 10:25:58;;;;;;;1.30;1.20;;;11.60;99.90;;;;;;4986459;28;20212;-76
2023/12/25 10:28:27;;;;;;;1.30;1.20;;;11.70;99.90;;;;;;4990276;28;20197;-77
2023/12/25 10:31:02;;;;;;;1.93;1.20;;;11.70;99.90;;;;;;4995123;28;20208;-78
2023/12/25 10:33:31;;;;;;;1.60;1.20;;;11.80;99.90;;;;;;4996382;28;20220;-76
2023/12/25 10:36:04;;;;;;;1.50;1.00;;;11.80;99.90;;;;;;4996065;28;20208;-77
2023/12/25 10:38:34;;;;;;;1.40;0.97;;;11.90;99.90;;;;;;4991027;28;20678;-76
2023/12/25 10:41:17;;;;;;;1.50;1.40;;;11.80;99.90;;;;;;4988778;28;20208;-76
2023/12/25 10:43:49;;;;;;;2.60;1.43;;;11.90;99.90;;;;;;4993822;28;20211;-76
2023/12/25 10:46:18;;;;;;;1.80;1.37;;;11.90;99.90;;;;;;4994347;28;20586;-76
2023/12/25 10:48:49;;;;;;;1.53;1.00;;;11.70;99.90;;;;;;4994061;28;20192;-78
2023/12/25 10:51:26;;;;;;;1.43;0.90;;;11.70;99.90;;;;;;4990341;28;20587;-77
2023/12/25 10:53:53;;;;;;;1.20;1.10;;;11.70;99.90;;;;;;4988099;28;20228;-76
2023/12/25 10:56:40;;;;;;;2.00;1.07;;;11.70;99.90;;;;;;4993250;28;20212;-77
2023/12/25 10:59:16;;;;;;;1.70;1.03;;;11.70;99.90;;;;;;4992032;28;20220;-77
2023/12/25 11:01:46;;;;;;;1.87;1.10;;;11.70;99.90;;;;;;4992198;28;20195;-77
2023/12/25 11:04:15;;;;;;;1.20;1.10;;;11.70;99.90;;;;;;4993098;28;20220;-76
2023/12/25 11:06:44;;;;;;;1.70;1.53;;;11.70;99.90;;;;;;4993812;28;20535;-79
2023/12/25 11:09:13;;;;;;;1.90;1.47;;;11.70;99.90;;;;;;4989391;28;20196;-76
2023/12/25 11:11:44;;;;;;;2.00;1.63;;;11.70;99.90;;;;;;4973917;28;20205;-76
2023/12/25 11:14:12;;;;;;;2.43;1.80;;;11.70;99.90;;;;;;4995241;28;20231;-76
2023/12/25 11:16:40;;;;;;;3.80;2.17;;;11.80;99.90;;;;;;4989658;28;20212;-76
2023/12/25 11:19:42;;;;;;;4.30;2.20;;;11.70;99.90;;;;;;4992850;28;20227;-76
2023/12/25 11:22:29;;;;;;;1.67;1.43;;;11.70;99.90;;;;;;4993418;28;20207;-76
2023/12/25 11:24:57;;;;;;;2.47;1.60;;;11.70;99.90;;;;;;4992345;28;20207;-76
2023/12/25 11:27:27;;;;;;;2.30;1.70;;;11.60;99.90;;;;;;4992837;28;20196;-77
2023/12/25 11:30:00;;;;;;;2.13;1.30;;;11.70;99.90;;;;;;4993217;28;20224;-77
2023/12/25 11:32:30;;;;;;;1.67;1.30;;;11.80;99.90;;;;;;4985230;28;20717;-73
2023/12/25 11:34:59;;;;;;;2.00;1.40;;;11.70;99.90;;;;;;5007110;28;20196;-75
2023/12/25 11:37:28;;;;;;;1.80;1.63;;;11.80;99.90;;;;;;4992865;28;20196;-75
2023/12/25 11:40:00;;;;;;;1.50;1.40;;;11.80;99.90;;;;;;4992716;28;20208;-75
2023/12/25 11:42:28;;;;;;;1.90;1.40;;;11.80;99.90;;;;;;4991860;28;20562;-75
2023/12/25 11:45:01;;;;;;;2.17;1.37;;;11.90;99.90;;;;;;4993439;28;20189;-75
2023/12/25 11:47:39;;;;;;;1.40;1.30;;;12.00;99.90;;;;;;4992241;28;20197;-76
2023/12/25 11:50:09;;;;;;;2.03;1.53;;;12.00;99.90;;;;;;4992919;28;20192;-76
2023/12/25 11:52:48;;;;;;;2.00;1.57;;;11.90;99.90;;;;;;4986053;28;20220;-75
2023/12/25 11:55:20;;;;;;;1.97;1.63;;;12.00;99.90;;;;;;4991457;28;20192;-77
2023/12/25 11:57:47;;;;;;;1.57;1.47;;;12.00;99.90;;;;;;4992986;28;20207;-75
2023/12/25 12:00:19;;;;;;;3.23;2.10;;;12.10;99.90;;;;;;4987906;28;20224;-76
2023/12/25 12:02:46;;;;;;;2.13;1.93;;;12.10;99.90;;;;;;4992069;28;20216;-75
2023/12/25 12:05:16;;;;;;;2.57;2.03;;;12.00;99.90;;;;;;4992691;28;20205;-76
2023/12/25 12:07:44;;;;;;;2.50;2.20;;;12.10;99.90;;;;;;4989068;28;20184;-75
2023/12/25 12:10:14;;;;;;;2.63;2.40;;;12.10;99.90;;;;;;4993053;28;20201;-75
2023/12/25 12:12:42;;;;;;;3.33;2.50;;;12.10;99.90;;;;;;4990845;28;20239;-75
2023/12/25 12:15:11;;;;;;;2.93;2.57;;;12.20;99.90;;;;;;4992467;28;20192;-75
2023/12/25 12:17:38;;;;;;;3.17;2.50;;;12.20;99.90;;;;;;4990369;28;20200;-75
2023/12/25 12:20:07;;;;;;;3.10;2.80;;;12.10;99.90;;;;;;4989841;28;20220;-75
2023/12/25 12:22:36;;;;;;;3.67;3.30;;;12.20;99.90;;;;;;4994772;28;20211;-76
2023/12/25 12:25:40;;;;;;;3.47;3.10;;;12.20;99.90;;;;;;4995059;28;20204;-75
2023/12/25 12:28:08;;;;;;;3.47;2.23;;;12.20;99.90;;;;;;5001197;28;20237;-75
2023/12/25 12:30:37;;;;;;;2.80;2.50;;;12.20;99.90;;;;;;5000026;28;20201;-75
2023/12/25 12:33:16;;;;;;;3.27;2.77;;;12.20;99.90;;;;;;5003522;28;20220;-75
2023/12/25 12:35:46;;;;;;;4.27;3.00;;;12.10;99.90;;;;;;4998381;28;20196;-75
2023/12/25 12:38:15;;;;;;;3.27;2.97;;;12.10;99.90;;;;;;4995068;28;20203;-76
2023/12/25 12:40:44;;;;;;;4.30;3.50;;;12.10;99.90;;;;;;4992986;28;20239;-76
2023/12/25 12:43:15;;;;;;;3.73;3.07;;;12.20;99.90;;;;;;5003559;28;20219;-76
2023/12/25 12:45:42;;;;;;;3.70;3.00;;;12.20;99.90;;;;;;5000740;28;20661;-75
2023/12/25 12:48:10;;;;;;;2.73;2.40;;;12.20;99.90;;;;;;4996704;28;20204;-75
2023/12/25 12:50:37;;;;;;;3.33;2.40;;;12.20;99.90;;;;;;4998793;28;20193;-75
2023/12/25 12:53:05;;;;;;;2.00;1.80;;;12.30;99.90;;;;;;5005465;28;20221;-76
2023/12/25 12:55:36;;;;;;;2.30;2.07;;;12.30;99.90;;;;;;4991674;28;20212;-76
2023/12/25 12:58:04;;;;;;;2.53;2.33;;;12.30;99.90;;;;;;4986985;28;20659;-76
2023/12/25 13:00:45;;;;;;;2.33;2.13;;;12.20;99.90;;;;;;4994412;28;20221;-76
2023/12/25 13:03:13;;;;;;;2.43;2.13;;;12.30;99.90;;;;;;5005949;28;20234;-75
2023/12/25 13:05:45;;;;;;;2.83;2.10;;;12.30;99.90;;;;;;4994830;28;20196;-75
2023/12/25 13:08:13;;;;;;;1.93;1.83;;;12.30;99.90;;;;;;4994551;28;20211;-76
2023/12/25 13:10:57;;;;;;;1.70;1.60;;;12.30;99.90;;;;;;4994729;28;20697;-76
2023/12/25 13:13:24;;;;;;;2.77;1.50;;;12.30;99.90;;;;;;5021740;28;20216;-75